Time;durP1;ratioP1;P1;durP2;ratioP2;P2;SDS_P1;SDS_P2;PMS_P1;PMS_P2;Temp;Humidity;BMP_temperature;BMP_pressure;BME280_temperature;BME280_humidity;BME280_pressure;Samples;Min_cycle;Max_cycle;Signal;HPM_P1;HPM_P2
2022/11/19 00:01:39;;;;;;;12.65;6.85;;;;;;;2.36;40.99;101501.72;7390337;19;20001;-59
2022/11/19 00:04:07;;;;;;;12.70;6.30;;;;;;;2.34;40.96;101499.28;7392062;19;20427;-59
2022/11/19 00:06:33;;;;;;;12.00;6.57;;;;;;;2.32;40.92;101506.03;7391323;19;20002;-60
2022/11/19 00:08:59;;;;;;;12.10;6.18;;;;;;;2.22;41.24;101507.63;7391793;19;20017;-60
2022/11/19 00:14:13;;;;;;;10.40;5.65;;;;;;;2.30;41.17;101510.88;7390938;19;19995;-60
2022/11/19 00:16:40;;;;;;;10.80;5.50;;;;;;;2.23;41.20;101509.25;7389813;19;19994;-60
2022/11/19 00:19:06;;;;;;;11.25;5.82;;;;;;;2.26;41.02;101509.81;7389113;19;20465;-59
2022/11/19 00:21:32;;;;;;;12.65;6.15;;;;;;;2.24;41.11;101508.16;7391497;19;20002;-59
2022/11/19 00:23:57;;;;;;;12.52;6.75;;;;;;;2.24;41.08;101510.88;7390872;19;20010;-59
2022/11/19 00:26:23;;;;;;;11.32;5.90;;;;;;;2.23;40.76;101511.97;7389337;19;19995;-58
2022/11/19 00:28:49;;;;;;;11.70;6.18;;;;;;;2.23;41.07;101520.03;7389332;19;20010;-59
2022/11/19 00:31:16;;;;;;;11.27;6.28;;;;;;;2.19;40.82;101518.13;7392743;19;20066;-60
2022/11/19 00:33:44;;;;;;;12.48;5.80;;;;;;;2.00;41.55;101525.88;7391701;19;20015;-61
2022/11/19 00:36:12;;;;;;;10.95;6.05;;;;;;;2.08;41.27;101529.97;7390741;19;20466;-61
2022/11/19 00:38:38;;;;;;;12.52;6.70;;;;;;;1.93;41.42;101525.34;7388833;19;19998;-59
2022/11/19 00:41:04;;;;;;;11.48;6.43;;;;;;;1.92;41.53;101526.44;7390351;19;19991;-59
2022/11/19 00:43:45;;;;;;;13.80;6.18;;;;;;;1.94;41.57;101526.97;7390953;19;20075;-59
2022/11/19 00:46:19;;;;;;;13.15;6.03;;;;;;;1.76;41.58;101525.56;7390408;19;20010;-59
2022/11/19 00:48:47;;;;;;;12.45;6.05;;;;;;;1.71;42.01;101539.78;7390171;19;20496;-60
2022/11/19 00:51:14;;;;;;;9.77;5.13;;;;;;;1.81;41.74;101539.81;7390552;19;20091;-59
2022/11/19 00:53:40;;;;;;;12.20;5.78;;;;;;;1.94;41.36;101532.34;7390001;19;20480;-60
2022/11/19 00:56:09;;;;;;;12.43;5.70;;;;;;;1.73;41.50;101539.53;7388666;19;20011;-60
2022/11/19 00:58:35;;;;;;;11.93;6.40;;;;;;;1.68;41.53;101551.06;7394384;19;20020;-59
2022/11/19 01:01:00;;;;;;;9.85;5.30;;;;;;;1.37;42.09;101547.44;7397642;19;20003;-59
2022/11/19 01:03:26;;;;;;;11.90;6.32;;;;;;;1.64;42.13;101552.69;7398434;19;20003;-60
2022/11/19 01:05:52;;;;;;;12.70;6.45;;;;;;;1.74;41.68;101560.81;7395859;19;19999;-59
2022/11/19 01:08:18;;;;;;;13.95;6.72;;;;;;;1.73;41.49;101547.59;7397224;19;20343;-60
2022/11/19 01:10:45;;;;;;;11.80;6.05;;;;;;;1.70;41.44;101548.97;7397276;19;20577;-59
2022/11/19 01:15:55;;;;;;;11.52;5.90;;;;;;;1.54;41.87;101555.34;7394988;19;20030;-59
2022/11/19 01:18:21;;;;;;;11.73;5.72;;;;;;;1.52;41.76;101552.09;7396775;19;20010;-60
2022/11/19 01:20:47;;;;;;;13.02;6.60;;;;;;;1.54;41.62;101555.34;7396119;19;20002;-61
2022/11/19 01:23:13;;;;;;;12.50;6.05;;;;;;;1.42;41.79;101559.03;7396480;19;19999;-60
2022/11/19 01:25:39;;;;;;;11.68;6.15;;;;;;;1.59;41.65;101564.22;7394409;19;20070;-61
2022/11/19 01:28:05;;;;;;;12.27;6.15;;;;;;;1.57;41.62;101562.88;7396248;19;20002;-59
2022/11/19 01:30:31;;;;;;;13.07;7.03;;;;;;;1.46;41.81;101564.69;7397734;19;19999;-60
2022/11/19 01:32:57;;;;;;;11.25;6.20;;;;;;;1.23;41.95;101571.28;7396937;19;20015;-60
2022/11/19 01:35:23;;;;;;;12.07;6.00;;;;;;;1.27;42.16;101573.19;7394648;19;20010;-60
2022/11/19 01:37:48;;;;;;;12.30;6.07;;;;;;;1.32;42.05;101563.56;7396638;19;20482;-60
2022/11/19 01:40:14;;;;;;;12.52;5.93;;;;;;;1.44;41.81;101573.03;7393345;19;20007;-60
2022/11/19 01:42:49;;;;;;;11.80;6.18;;;;;;;1.44;41.58;101564.16;7396852;19;20518;-60
2022/11/19 01:45:27;;;;;;;10.93;6.05;;;;;;;1.44;41.62;101572.22;7395494;19;20007;-60
2022/11/19 01:47:55;;;;;;;11.70;6.07;;;;;;;1.49;41.58;101564.97;7396569;19;20007;-60
2022/11/19 01:50:23;;;;;;;12.57;6.07;;;;;;;1.48;41.46;101568.75;7396563;19;20025;-60
2022/11/19 01:52:48;;;;;;;12.00;6.68;;;;;;;1.37;41.70;101575.16;7396477;19;20002;-60
2022/11/19 01:55:16;;;;;;;12.55;6.60;;;;;;;1.44;41.50;101574.91;7392419;19;20062;-60
2022/11/19 01:57:42;;;;;;;11.82;6.18;;;;;;;1.45;41.80;101574.66;7395519;19;20002;-60
2022/11/19 02:00:09;;;;;;;11.27;5.53;;;;;;;1.42;41.61;101577.06;7392362;19;19998;-61
2022/11/19 02:02:35;;;;;;;10.95;6.00;;;;;;;1.40;41.51;101576.50;7396752;19;20002;-61
2022/11/19 02:05:00;;;;;;;11.57;5.65;;;;;;;1.52;41.31;101581.69;7395146;19;19995;-61
2022/11/19 02:07:31;;;;;;;10.95;5.72;;;;;;;1.57;41.34;101581.72;7395341;19;20514;-60
2022/11/19 02:10:00;;;;;;;11.23;6.00;;;;;;;1.39;41.53;101586.44;7395511;19;20010;-60
2022/11/19 02:12:51;;;;;;;11.35;6.20;;;;;;;1.14;41.91;101589.78;7396434;19;20006;-60
2022/11/19 02:15:35;;;;;;;11.13;5.38;;;;;;;1.35;41.57;101590.75;7391890;19;20443;-60
2022/11/19 02:18:16;;;;;;;11.02;5.47;;;;;;;1.22;41.49;101580.44;7395515;19;20006;-60
2022/11/19 02:21:07;;;;;;;11.05;5.80;;;;;;;1.43;41.53;101584.88;7393748;19;19994;-59
2022/11/19 02:24:00;;;;;;;9.32;5.18;;;;;;;1.49;40.96;101593.78;7395492;19;20058;-61
2022/11/19 02:26:29;;;;;;;12.75;5.75;;;;;;;1.48;41.02;101598.34;7394521;19;19998;-61
2022/11/19 02:29:08;;;;;;;12.23;6.07;;;;;;;1.61;41.05;101598.97;7393809;19;20010;-61
2022/11/19 02:31:47;;;;;;;12.85;6.57;;;;;;;1.44;41.00;101605.31;7395720;19;20490;-59
2022/11/19 02:34:24;;;;;;;11.43;6.05;;;;;;;1.45;41.11;101611.53;7395177;19;20065;-60
2022/11/19 02:37:06;;;;;;;12.02;5.78;;;;;;;1.32;41.30;101615.47;7394774;19;19998;-59
2022/11/19 02:39:50;;;;;;;13.13;5.90;;;;;;;0.90;42.18;101625.06;7394479;19;20011;-59
2022/11/19 02:43:06;;;;;;;11.27;6.10;;;;;;;1.01;41.78;101607.16;7393218;19;20336;-59
2022/11/19 02:45:38;;;;;;;12.00;6.30;;;;;;;0.96;41.99;101617.88;7388794;19;19995;-59
2022/11/19 02:48:27;;;;;;;11.43;5.82;;;;;;;0.72;42.16;101618.16;7394038;19;20002;-59
2022/11/19 02:51:01;;;;;;;10.15;5.43;;;;;;;0.68;42.43;101617.06;7395271;19;19995;-59
2022/11/19 02:53:26;;;;;;;11.25;5.72;;;;;;;0.85;41.83;101618.84;7395732;19;19994;-59
2022/11/19 02:56:10;;;;;;;12.57;6.20;;;;;;;0.75;42.08;101620.34;7391932;19;20006;-60
2022/11/19 03:04:29;;;;;;;12.25;5.95;;;;;;;0.82;42.09;101620.13;7393776;19;20462;-59
2022/11/19 03:07:08;;;;;;;12.02;5.90;;;;;;;0.69;42.17;101624.03;7393978;19;20010;-59
2022/11/19 03:09:40;;;;;;;13.18;6.68;;;;;;;0.78;42.03;101624.41;7394359;19;19998;-59
2022/11/19 03:12:17;;;;;;;11.82;6.32;;;;;;;0.65;42.39;101631.00;7392347;19;20002;-59
2022/11/19 03:18:39;;;;;;;11.32;6.25;;;;;;;0.68;41.81;101626.97;7393224;19;20018;-59
2022/11/19 03:21:20;;;;;;;14.05;6.68;;;;;;;0.63;42.45;101621.56;7387181;19;20079;-59
2022/11/19 03:23:59;;;;;;;11.93;6.25;;;;;;;0.68;42.15;101621.59;7392572;19;19998;-59
2022/11/19 03:26:29;;;;;;;12.57;6.22;;;;;;;0.78;41.96;101621.72;7393537;19;20593;-58
2022/11/19 03:28:58;;;;;;;11.93;6.07;;;;;;;0.84;41.83;101627.94;7393116;19;20013;-58
2022/11/19 03:31:33;;;;;;;11.75;6.28;;;;;;;0.84;41.75;101636.81;7393206;19;19995;-59
2022/11/19 03:34:02;;;;;;;13.77;6.45;;;;;;;0.77;41.89;101633.53;7391139;19;20435;-58
2022/11/19 03:36:36;;;;;;;13.43;6.70;;;;;;;0.72;41.82;101639.66;7390543;19;20011;-59
2022/11/19 03:39:04;;;;;;;;;;;;;;;0.51;42.26;101640.50;7393280;19;20002;-59
2022/11/19 03:41:33;;;;;;;14.23;7.00;;;;;;;0.71;42.08;101646.13;7392915;19;19927;-58
2022/11/19 03:44:13;;;;;;;12.82;6.38;;;;;;;0.81;41.68;101633.84;7392911;19;19995;-59
2022/11/19 03:46:41;;;;;;;12.68;6.38;;;;;;;0.77;41.93;101643.47;7391745;19;20017;-58
2022/11/19 03:49:09;;;;;;;12.50;7.15;;;;;;;0.73;41.89;101643.16;7393047;19;20014;-59
2022/11/19 03:51:50;;;;;;;13.25;6.30;;;;;;;0.74;42.11;101644.78;7391089;19;20062;-60
2022/11/19 03:54:23;;;;;;;15.13;7.25;;;;;;;0.66;42.12;101648.72;7392213;19;20002;-60
2022/11/19 03:56:49;;;;;;;12.73;6.85;;;;;;;0.65;42.04;101647.13;7389673;19;20014;-59
2022/11/19 03:59:15;;;;;;;14.25;7.65;;;;;;;0.64;42.11;101661.63;7391897;19;20355;-61
2022/11/19 04:01:42;;;;;;;14.55;6.70;;;;;;;0.68;42.01;101667.28;7392087;19;20006;-59
2022/11/19 04:06:53;;;;;;;12.95;6.93;;;;;;;0.65;41.94;101671.31;7389439;19;19995;-59
2022/11/19 04:09:18;;;;;;;13.82;7.07;;;;;;;0.47;42.31;101671.66;7392183;19;20434;-59
2022/11/19 04:11:44;;;;;;;11.75;6.57;;;;;;;0.46;42.32;101672.69;7392254;19;20088;-59
2022/11/19 04:14:10;;;;;;;11.70;6.68;;;;;;;0.47;42.36;101664.38;7391527;19;20174;-59
2022/11/19 04:16:36;;;;;;;13.48;7.07;;;;;;;0.57;41.86;101666.38;7390915;19;19994;-61
2022/11/19 04:19:01;;;;;;;11.98;6.35;;;;;;;0.62;42.07;101665.63;7391083;19;19999;-60
2022/11/19 04:21:27;;;;;;;12.70;6.80;;;;;;;0.67;41.75;101669.16;7390980;19;20490;-59
2022/11/19 04:23:53;;;;;;;13.27;6.82;;;;;;;0.44;42.11;101664.09;7391307;19;19990;-59
2022/11/19 04:26:18;;;;;;;13.25;6.85;;;;;;;0.37;42.41;101667.75;7390896;19;19999;-58
2022/11/19 04:28:44;;;;;;;15.18;6.78;;;;;;;0.36;42.46;101670.69;7391300;19;20083;-60
2022/11/19 04:31:10;;;;;;;11.57;6.38;;;;;;;0.32;42.55;101670.41;7389237;19;19993;-61
2022/11/19 04:33:35;;;;;;;12.35;6.15;;;;;;;0.39;42.23;101673.69;7391149;19;20001;-59
2022/11/19 04:36:01;;;;;;;13.80;6.70;;;;;;;0.42;42.15;101671.59;7388909;19;20002;-59
2022/11/19 04:38:26;;;;;;;11.32;6.35;;;;;;;0.33;42.12;101663.97;7390116;19;19995;-60
2022/11/19 04:40:52;;;;;;;12.07;6.70;;;;;;;0.42;41.85;101663.53;7389184;19;20032;-59
2022/11/19 04:43:18;;;;;;;12.38;6.22;;;;;;;-0.03;42.63;101671.56;7390935;19;20010;-60
2022/11/19 04:45:43;;;;;;;13.48;6.35;;;;;;;0.11;42.68;101666.66;7389659;19;20387;-59
2022/11/19 04:48:09;;;;;;;13.23;6.30;;;;;;;0.29;42.46;101664.72;7390147;19;20399;-58
2022/11/19 04:50:35;;;;;;;12.15;6.43;;;;;;;0.33;42.21;101669.34;7390894;19;20316;-59
2022/11/19 04:53:00;;;;;;;11.77;6.15;;;;;;;0.36;42.02;101666.16;7389921;19;20457;-57
2022/11/19 04:55:26;;;;;;;12.80;6.78;;;;;;;0.17;42.46;101672.91;7387673;19;20357;-59
2022/11/19 04:57:52;;;;;;;11.98;6.32;;;;;;;0.27;42.34;101662.28;7388089;19;20003;-59
2022/11/19 05:00:18;;;;;;;12.27;5.90;;;;;;;0.11;42.47;101674.72;7389535;19;19995;-59
2022/11/19 05:02:44;;;;;;;11.82;5.68;;;;;;;0.06;42.54;101671.13;7391299;19;20030;-60
2022/11/19 05:05:10;;;;;;;11.85;6.07;;;;;;;0.12;42.44;101665.59;7389281;19;20062;-58
2022/11/19 05:07:35;;;;;;;12.00;6.38;;;;;;;0.22;42.28;101674.84;7390571;19;20384;-59
2022/11/19 05:10:01;;;;;;;11.32;5.60;;;;;;;0.25;41.83;101668.97;7390408;19;20018;-59
2022/11/19 05:12:27;;;;;;;12.63;6.28;;;;;;;0.09;42.08;101681.38;7389738;19;20003;-59
2022/11/19 05:14:53;;;;;;;12.52;5.78;;;;;;;0.14;42.00;101676.06;7389611;19;20005;-58
2022/11/19 05:17:18;;;;;;;12.60;6.22;;;;;;;0.20;42.02;101678.56;7387639;19;19998;-58
2022/11/19 05:19:44;;;;;;;10.73;5.53;;;;;;;0.17;42.01;101676.38;7390193;19;20018;-59
2022/11/19 05:22:10;;;;;;;12.52;6.28;;;;;;;0.25;41.80;101675.16;7390482;19;19999;-59
2022/11/19 05:24:35;;;;;;;11.73;5.93;;;;;;;0.10;42.17;101685.69;7389717;19;20023;-60
2022/11/19 05:27:01;;;;;;;11.32;5.90;;;;;;;0.03;42.19;101687.72;7389289;19;20010;-58
2022/11/19 05:29:27;;;;;;;11.30;5.80;;;;;;;-0.13;42.28;101686.72;7389689;19;20002;-58
2022/11/19 05:31:53;;;;;;;12.63;6.10;;;;;;;-0.12;42.28;101691.84;7390199;19;20386;-58
2022/11/19 05:34:18;;;;;;;11.77;5.97;;;;;;;-0.20;42.34;101694.94;7388767;19;19999;-58
2022/11/19 05:36:44;;;;;;;12.32;5.85;;;;;;;-0.10;42.05;101689.72;7389207;19;20003;-59
2022/11/19 05:39:10;;;;;;;11.70;5.75;;;;;;;-0.18;42.11;101690.16;7389471;19;20006;-60
2022/11/19 05:41:35;;;;;;;11.07;5.78;;;;;;;-0.14;41.95;101687.78;7390000;19;20455;-59
2022/11/19 05:44:01;;;;;;;11.80;5.97;;;;;;;-0.20;42.43;101693.06;7391097;19;20003;-58
2022/11/19 05:46:27;;;;;;;11.07;5.72;;;;;;;-0.22;42.23;101686.34;7396219;19;20010;-58
2022/11/19 05:48:53;;;;;;;10.57;5.85;;;;;;;-0.24;42.27;101683.06;7396945;19;19995;-59
2022/11/19 05:51:19;;;;;;;13.60;6.05;;;;;;;-0.08;42.07;101692.16;7396474;19;20082;-58
2022/11/19 05:53:45;;;;;;;12.25;6.22;;;;;;;-0.18;42.23;101687.47;7396394;19;20510;-59
2022/11/19 05:56:10;;;;;;;11.57;5.88;;;;;;;-0.23;42.28;101690.88;7394426;19;20077;-59
2022/11/19 05:58:36;;;;;;;13.07;6.47;;;;;;;-0.25;42.45;101692.19;7395746;19;20343;-60
2022/11/19 06:01:02;;;;;;;11.25;6.03;;;;;;;-0.33;42.46;101689.94;7394984;19;20502;-58
2022/11/19 06:03:28;;;;;;;13.05;7.07;;;;;;;-0.26;42.31;101686.00;7396564;19;19998;-59
2022/11/19 06:05:54;;;;;;;13.20;6.57;;;;;;;-0.40;42.81;101696.25;7392271;19;20011;-59
2022/11/19 06:08:19;;;;;;;12.35;6.20;;;;;;;-0.24;42.52;101685.75;7395501;19;20026;-59
2022/11/19 06:10:45;;;;;;;13.98;6.38;;;;;;;-0.67;43.16;101687.25;7396338;19;20056;-60
2022/11/19 06:13:11;;;;;;;12.60;6.18;;;;;;;-1.06;44.08;101692.47;7395619;19;19994;-58
2022/11/19 06:15:36;;;;;;;11.20;6.30;;;;;;;-1.18;44.19;101693.34;7392331;19;20001;-58
2022/11/19 06:18:02;;;;;;;13.05;5.70;;;;;;;-0.83;43.75;101696.91;7395261;19;19994;-58
2022/11/19 06:20:29;;;;;;;12.93;6.78;;;;;;;-1.08;44.35;101695.41;7393964;19;20006;-59
2022/11/19 06:22:54;;;;;;;12.05;6.03;;;;;;;-0.73;43.76;101697.06;7395562;19;20029;-61
2022/11/19 06:25:20;;;;;;;12.65;6.28;;;;;;;-0.59;43.34;101697.56;7393775;19;20003;-61
2022/11/19 06:27:46;;;;;;;12.55;5.80;;;;;;;-0.43;43.08;101702.13;7394598;19;20001;-59
2022/11/19 06:30:12;;;;;;;12.95;6.35;;;;;;;-0.26;42.64;101701.28;7395598;19;20300;-58
2022/11/19 06:32:38;;;;;;;12.45;6.68;;;;;;;-0.60;43.01;101706.69;7395991;19;20020;-59
2022/11/19 06:35:04;;;;;;;12.93;6.45;;;;;;;-0.61;43.27;101703.19;7393512;19;20006;-59
2022/11/19 06:37:30;;;;;;;12.50;6.03;;;;;;;-0.40;43.16;101701.63;7392987;19;19995;-59
2022/11/19 06:39:55;;;;;;;13.38;6.72;;;;;;;-0.63;42.87;101701.78;7393379;19;19998;-59
2022/11/19 06:42:36;;;;;;;12.65;6.90;;;;;;;-0.82;43.60;101709.25;7395572;19;20474;-59
2022/11/19 06:45:08;;;;;;;13.25;7.10;;;;;;;-1.39;44.70;101718.09;7393596;19;19994;-57
2022/11/19 06:47:34;;;;;;;13.68;6.88;;;;;;;-1.14;44.36;101715.13;7392856;19;19995;-58
2022/11/19 06:50:00;;;;;;;13.73;6.70;;;;;;;-1.33;44.73;101714.50;7394301;19;19994;-58
2022/11/19 06:52:27;;;;;;;13.07;6.50;;;;;;;-1.36;44.89;101717.63;7395419;19;20655;-57
2022/11/19 06:54:52;;;;;;;13.52;6.43;;;;;;;-0.86;44.07;101730.34;7389647;19;20012;-59
2022/11/19 06:57:18;;;;;;;13.25;6.80;;;;;;;-0.58;43.35;101717.97;7392731;19;20458;-59
2022/11/19 06:59:44;;;;;;;14.35;7.53;;;;;;;-0.45;42.96;101719.53;7393814;19;19995;-58
2022/11/19 07:02:11;;;;;;;15.98;8.02;;;;;;;-0.52;43.28;101724.22;7394485;19;20458;-59
2022/11/19 07:04:36;;;;;;;15.25;8.18;;;;;;;-0.41;43.19;101718.81;7391347;19;19990;-59
2022/11/19 07:07:03;;;;;;;13.90;7.05;;;;;;;-0.45;43.09;101720.31;7393557;19;19994;-59
2022/11/19 07:09:29;;;;;;;15.52;7.57;;;;;;;-0.40;43.01;101724.97;7393935;19;20015;-59
2022/11/19 07:11:54;;;;;;;14.32;7.18;;;;;;;-0.44;43.04;101721.97;7393725;19;19998;-60
2022/11/19 07:14:20;;;;;;;12.38;6.80;;;;;;;-0.46;42.97;101728.63;7392911;19;20005;-58
2022/11/19 07:16:46;;;;;;;15.77;7.57;;;;;;;-0.81;43.62;101721.59;7393064;19;20006;-58
2022/11/19 07:19:11;;;;;;;14.65;7.43;;;;;;;-0.93;43.90;101727.81;7392976;19;20094;-58
2022/11/19 07:21:37;;;;;;;14.30;7.05;;;;;;;-1.30;44.82;101736.25;7393190;19;19999;-59
2022/11/19 07:24:05;;;;;;;12.82;6.93;;;;;;;-1.16;45.00;101735.97;7392152;19;19998;-58
2022/11/19 07:26:32;;;;;;;16.00;6.90;;;;;;;-1.02;44.62;101736.50;7392197;19;20340;-59
2022/11/19 07:29:03;;;;;;;13.75;7.25;;;;;;;-0.80;44.07;101742.81;7391739;19;20009;-59
2022/11/19 07:31:29;;;;;;;13.15;7.05;;;;;;;-0.96;44.48;101743.56;7390612;19;20348;-59
2022/11/19 07:33:55;;;;;;;16.25;7.30;;;;;;;-0.56;43.98;101742.66;7392873;19;20082;-58
2022/11/19 07:36:21;;;;;;;14.38;7.40;;;;;;;-0.53;43.53;101739.50;7391816;19;20353;-60
2022/11/19 07:38:49;;;;;;;13.43;7.43;;;;;;;-0.88;44.60;101743.19;7392513;19;20401;-58
2022/11/19 07:43:59;;;;;;;14.82;7.03;;;;;;;-1.05;45.16;101747.72;7392493;19;20367;-60
2022/11/19 07:46:25;;;;;;;14.80;7.30;;;;;;;-0.50;44.24;101748.94;7390982;19;20002;-59
2022/11/19 07:48:53;;;;;;;14.93;7.35;;;;;;;-0.24;43.79;101739.41;7393402;19;20123;-60
2022/11/19 07:51:18;;;;;;;15.50;7.47;;;;;;;-0.13;43.57;101745.75;7392509;19;20483;-60
2022/11/19 07:53:44;;;;;;;18.85;7.85;;;;;;;-0.15;43.58;101737.97;7392234;19;20003;-59
2022/11/19 07:56:10;;;;;;;14.25;7.53;;;;;;;-0.09;43.32;101742.34;7390107;19;20021;-61
2022/11/19 07:58:35;;;;;;;16.38;8.52;;;;;;;-0.06;43.15;101744.53;7391888;19;20003;-61
2022/11/19 08:01:13;;;;;;;14.27;7.60;;;;;;;-0.07;43.44;101734.88;7392346;19;20006;-60
2022/11/19 08:03:41;;;;;;;13.25;7.45;;;;;;;-0.05;43.26;101746.16;7391363;19;20030;-60
2022/11/19 08:06:07;;;;;;;15.60;7.47;;;;;;;-0.14;43.55;101744.97;7391022;19;20361;-58
2022/11/19 08:08:33;;;;;;;13.77;6.53;;;;;;;-0.05;43.59;101745.34;7389514;19;20007;-59
2022/11/19 08:11:04;;;;;;;13.35;6.65;;;;;;;0.02;43.21;101751.34;7390146;19;20019;-59
2022/11/19 08:13:31;;;;;;;12.20;6.72;;;;;;;-0.14;43.60;101752.19;7391241;19;20467;-59
2022/11/19 08:16:05;;;;;;;12.70;6.40;;;;;;;0.05;43.17;101758.91;7390082;19;20003;-58
2022/11/19 08:18:31;;;;;;;12.23;6.60;;;;;;;-0.01;43.50;101765.25;7391738;19;19998;-62
2022/11/19 08:21:10;;;;;;;13.30;7.47;;;;;;;-0.08;43.23;101754.69;7388685;19;20637;-59
2022/11/19 08:23:37;;;;;;;12.43;6.47;;;;;;;-0.32;44.00;101756.75;7391524;19;20339;-60
2022/11/19 08:26:06;;;;;;;14.52;7.53;;;;;;;-0.57;44.56;101754.47;7391602;19;20003;-59
2022/11/19 08:28:32;;;;;;;15.00;7.15;;;;;;;-0.44;44.76;101758.69;7390815;19;20006;-59
2022/11/19 08:31:08;;;;;;;13.23;7.13;;;;;;;-0.25;44.13;101762.75;7391511;19;20013;-60
2022/11/19 08:33:34;;;;;;;15.00;6.82;;;;;;;-0.23;44.29;101759.84;7391991;19;20005;-59
2022/11/19 08:36:00;;;;;;;14.00;7.45;;;;;;;-0.29;44.58;101753.59;7386959;19;19999;-60
2022/11/19 08:38:26;;;;;;;15.35;7.40;;;;;;;-0.34;44.94;101748.16;7390051;19;20002;-59
2022/11/19 08:42:58;;;;;;;14.35;7.53;;;;;;;-0.19;44.85;101748.38;7389535;19;20006;-59
2022/11/19 08:43:38;;;;;;;15.73;8.25;;;;;;;0.08;44.35;101749.53;7391131;19;20002;-58
2022/11/19 08:46:04;;;;;;;13.73;7.60;;;;;;;0.47;43.77;101758.41;7388932;19;19994;-59
2022/11/19 08:48:30;;;;;;;16.30;8.50;;;;;;;0.74;43.15;101763.84;7388626;19;20074;-59
2022/11/19 08:50:56;;;;;;;17.90;9.48;;;;;;;0.43;43.34;101756.47;7388676;19;19999;-59
2022/11/19 08:53:21;;;;;;;15.07;8.75;;;;;;;0.39;43.70;101754.28;7390077;19;20066;-58
2022/11/19 08:55:50;;;;;;;16.27;8.90;;;;;;;0.43;43.67;101754.63;7388605;19;20068;-60
2022/11/19 08:58:16;;;;;;;17.17;9.23;;;;;;;0.43;43.87;101745.72;7389740;19;20336;-60
2022/11/19 09:00:42;;;;;;;18.27;10.15;;;;;;;0.50;43.97;101752.53;7389370;19;20030;-59
2022/11/19 09:03:07;;;;;;;19.65;10.70;;;;;;;0.59;43.91;101752.91;7390047;19;19991;-60
2022/11/19 09:05:33;;;;;;;17.60;10.48;;;;;;;0.58;43.84;101754.00;7388429;19;19995;-58
2022/11/19 09:07:59;;;;;;;17.83;9.52;;;;;;;0.58;44.01;101745.94;7388962;19;20005;-60
2022/11/19 09:10:25;;;;;;;17.40;9.25;;;;;;;0.70;43.85;101748.50;7390511;19;19991;-60
2022/11/19 09:12:52;;;;;;;17.10;9.52;;;;;;;0.82;43.57;101745.66;7389516;19;19998;-60
2022/11/19 09:15:18;;;;;;;17.52;9.35;;;;;;;0.85;43.46;101747.84;7389222;19;20014;-57
2022/11/19 09:17:44;;;;;;;15.68;9.55;;;;;;;0.79;43.61;101743.47;7389365;19;20066;-59
2022/11/19 09:20:10;;;;;;;16.08;8.80;;;;;;;1.18;42.82;101756.81;7391343;19;19991;-59
2022/11/19 09:22:36;;;;;;;15.90;8.52;;;;;;;1.34;42.38;101745.13;7396245;19;20006;-59
2022/11/19 09:25:02;;;;;;;15.70;8.35;;;;;;;1.45;42.15;101752.22;7395653;19;20396;-59
2022/11/19 09:27:27;;;;;;;14.73;8.32;;;;;;;1.53;42.43;101747.44;7397205;19;20002;-59
2022/11/19 09:29:53;;;;;;;16.42;9.32;;;;;;;1.57;42.08;101749.38;7397525;19;20455;-60
2022/11/19 09:32:19;;;;;;;18.58;9.57;;;;;;;1.68;42.28;101745.69;7397355;19;20017;-59
2022/11/19 09:34:44;;;;;;;17.08;9.70;;;;;;;1.77;41.95;101753.28;7395503;19;19999;-59
2022/11/19 09:37:10;;;;;;;17.10;9.25;;;;;;;1.87;41.92;101753.38;7396962;19;20465;-59
2022/11/19 09:39:36;;;;;;;17.38;8.95;;;;;;;2.13;41.31;101748.13;7395600;19;20006;-59
2022/11/19 09:42:15;;;;;;;16.73;8.70;;;;;;;2.10;41.37;101749.47;7395941;19;20003;-59
2022/11/19 09:45:19;;;;;;;14.50;7.93;;;;;;;2.04;40.86;101753.19;7395984;19;20005;-59
2022/11/19 09:47:59;;;;;;;14.85;7.55;;;;;;;2.08;41.35;101751.59;7394311;19;20483;-59
2022/11/19 09:50:29;;;;;;;14.30;7.65;;;;;;;1.92;41.69;101752.59;7396604;19;20403;-59
2022/11/19 09:53:05;;;;;;;13.80;7.75;;;;;;;2.01;41.47;101749.13;7397013;19;20025;-59
2022/11/19 09:55:44;;;;;;;16.63;8.30;;;;;;;1.93;41.71;101752.31;7393127;19;20409;-58
2022/11/19 09:58:23;;;;;;;12.93;7.45;;;;;;;2.09;41.46;101749.75;7395863;19;20002;-59
2022/11/19 10:00:49;;;;;;;14.52;7.43;;;;;;;2.35;41.08;101750.66;7393441;19;19999;-59
2022/11/19 10:03:18;;;;;;;12.13;6.40;;;;;;;2.41;40.75;101749.63;7395849;19;20001;-59
2022/11/19 10:06:10;;;;;;;11.93;6.35;;;;;;;2.33;40.36;101745.53;7394385;19;20033;-60
2022/11/19 10:09:04;;;;;;;13.77;6.70;;;;;;;2.57;40.31;101740.53;7393552;19;20488;-59
2022/11/19 10:11:48;;;;;;;11.43;6.15;;;;;;;2.77;39.97;101750.59;7394866;19;20092;-60
2022/11/19 10:14:31;;;;;;;;;;;;;;;2.64;39.27;101744.88;7396661;19;20010;-59
2022/11/19 10:17:23;;;;;;;11.60;5.32;;;;;;;2.72;39.78;101738.97;7394440;19;20017;-60
2022/11/19 10:20:13;;;;;;;11.82;5.97;;;;;;;2.92;39.35;101740.94;7394203;19;19999;-58
2022/11/19 10:22:48;;;;;;;11.20;5.43;;;;;;;3.01;39.00;101738.50;7395047;19;20003;-59
2022/11/19 10:25:19;;;;;;;13.45;6.60;;;;;;;2.92;39.43;101735.53;7394327;19;20066;-58
2022/11/19 10:27:54;;;;;;;11.93;5.78;;;;;;;2.94;39.28;101731.47;7393074;19;20058;-58
2022/11/19 10:30:23;;;;;;;12.13;6.10;;;;;;;3.16;38.94;101733.13;7394684;19;19998;-59
2022/11/19 10:32:59;;;;;;;10.57;5.40;;;;;;;3.27;38.40;101729.38;7394466;19;19995;-59
2022/11/19 10:35:39;;;;;;;11.57;5.63;;;;;;;3.31;38.51;101727.75;7393063;19;20023;-58
2022/11/19 10:38:21;;;;;;;12.18;5.70;;;;;;;3.39;38.74;101722.91;7392910;19;20006;-59
2022/11/19 10:40:58;;;;;;;11.20;5.28;;;;;;;3.45;38.51;101716.44;7392220;19;20554;-59
2022/11/19 10:43:23;;;;;;;12.73;5.57;;;;;;;3.31;38.56;101711.56;7394247;19;19998;-59
2022/11/19 10:45:49;;;;;;;10.45;4.97;;;;;;;3.40;38.51;101711.03;7391834;19;20360;-59
2022/11/19 10:48:23;;;;;;;10.25;5.15;;;;;;;3.41;38.83;101716.16;7394284;19;20062;-59
2022/11/19 10:50:50;;;;;;;10.05;5.18;;;;;;;3.44;38.99;101717.53;7394119;19;20026;-59
2022/11/19 10:53:24;;;;;;;11.75;5.20;;;;;;;3.52;39.02;101711.59;7394583;19;20022;-58
2022/11/19 10:55:55;;;;;;;11.57;5.80;;;;;;;3.51;38.57;101704.56;7391269;19;20003;-59
2022/11/19 10:58:32;;;;;;;9.65;5.00;;;;;;;3.49;38.35;101699.44;7393371;19;20418;-59
2022/11/19 11:01:02;;;;;;;11.57;5.10;;;;;;;3.57;38.38;101698.09;7391225;19;19995;-60
2022/11/19 11:03:40;;;;;;;11.27;5.40;;;;;;;3.62;38.29;101690.00;7393269;19;20009;-59
2022/11/19 11:06:08;;;;;;;12.25;5.70;;;;;;;3.62;38.43;101686.47;7394105;19;20458;-59
2022/11/19 11:08:53;;;;;;;11.30;5.47;;;;;;;3.60;38.06;101683.22;7393366;19;19998;-58
2022/11/19 11:14:50;;;;;;;10.02;4.93;;;;;;;3.63;38.47;101690.78;7392973;19;20010;-58
2022/11/19 11:17:20;;;;;;;9.45;4.63;;;;;;;3.75;38.26;101687.81;7392010;19;20057;-59
2022/11/19 11:20:06;;;;;;;10.70;5.05;;;;;;;3.70;38.17;101680.50;7392259;19;20396;-58
2022/11/19 11:22:34;;;;;;;10.82;5.20;;;;;;;3.73;38.16;101684.56;7391419;19;19998;-59
2022/11/19 11:25:01;;;;;;;11.13;5.65;;;;;;;3.83;38.63;101676.44;7389869;19;20348;-59
2022/11/19 11:27:29;;;;;;;13.10;5.32;;;;;;;3.91;38.42;101675.88;7392325;19;20017;-59
2022/11/19 11:30:10;;;;;;;11.52;5.40;;;;;;;3.88;38.13;101665.63;7390924;19;20309;-58
2022/11/19 11:32:43;;;;;;;9.48;4.53;;;;;;;3.88;38.34;101665.63;7392386;19;20006;-59
2022/11/19 11:35:30;;;;;;;10.18;4.97;;;;;;;3.77;38.04;101664.88;7392424;19;20019;-59
2022/11/19 11:37:57;;;;;;;10.07;4.90;;;;;;;3.86;38.43;101665.91;7391187;19;20498;-58
2022/11/19 11:40:23;;;;;;;11.82;5.03;;;;;;;3.84;38.40;101664.56;7391020;19;20467;-58
2022/11/19 11:42:51;;;;;;;11.15;4.88;;;;;;;3.93;38.50;101654.00;7390751;19;20003;-58
2022/11/19 11:45:31;;;;;;;11.00;4.97;;;;;;;4.00;38.54;101657.22;7391202;19;20123;-59
2022/11/19 11:48:02;;;;;;;10.45;5.07;;;;;;;4.01;38.56;101658.84;7390104;19;20142;-59
2022/11/19 11:50:28;;;;;;;10.38;4.47;;;;;;;3.93;38.96;101652.09;7392881;19;20024;-59
2022/11/19 11:52:56;;;;;;;9.35;4.72;;;;;;;4.08;39.11;101654.75;7393044;19;19995;-59
2022/11/19 11:55:28;;;;;;;10.38;4.15;;;;;;;4.07;39.24;101658.56;7390210;19;20033;-58
2022/11/19 11:58:22;;;;;;;10.15;4.00;;;;;;;4.10;39.22;101657.19;7390248;19;20504;-58
2022/11/19 12:00:48;;;;;;;9.18;4.15;;;;;;;4.21;39.27;101656.06;7390965;19;20486;-57